createdAt,value
2023-06-18T00:02:09.626Z,13.54
2023-06-18T00:04:36.556Z,13.60
2023-06-18T00:07:03.565Z,13.69
2023-06-18T00:09:30.442Z,13.56
2023-06-18T00:11:57.257Z,13.54
2023-06-18T00:14:24.196Z,13.58
2023-06-18T00:16:52.256Z,13.58
2023-06-18T00:19:19.083Z,13.48
2023-06-18T00:21:46.219Z,13.50
2023-06-18T00:24:13.070Z,13.40
2023-06-18T00:26:39.893Z,13.37
2023-06-18T00:29:06.808Z,13.26
2023-06-18T00:31:33.952Z,13.12
2023-06-18T00:34:08.355Z,13.04
2023-06-18T00:36:40.072Z,12.89
2023-06-18T00:39:08.223Z,12.83
2023-06-18T00:41:35.266Z,12.72
2023-06-18T00:44:02.151Z,12.71
2023-06-18T00:46:32.160Z,12.59
2023-06-18T00:48:59.069Z,12.63
2023-06-18T00:51:27.802Z,12.49
2023-06-18T00:53:55.489Z,12.50
2023-06-18T00:56:23.346Z,12.53
2023-06-18T00:58:50.143Z,12.29
2023-06-18T01:01:17.041Z,12.41
2023-06-18T01:03:49.066Z,12.41
2023-06-18T01:06:18.512Z,12.36
2023-06-18T01:08:50.130Z,12.30
2023-06-18T01:11:19.861Z,12.20
2023-06-18T01:13:46.889Z,12.32
2023-06-18T01:16:14.840Z,12.27
2023-06-18T01:18:48.236Z,12.25
2023-06-18T01:21:19.927Z,12.13
2023-06-18T01:24:05.632Z,12.15
2023-06-18T01:26:33.201Z,12.00
2023-06-18T01:29:00.427Z,11.98
2023-06-18T01:31:29.413Z,11.97
2023-06-18T01:33:56.633Z,11.97
2023-06-18T01:36:40.915Z,12.06
2023-06-18T01:39:30.381Z,12.04
2023-06-18T01:42:01.894Z,11.90
2023-06-18T01:44:31.150Z,11.92
2023-06-18T01:46:57.925Z,11.91
2023-06-18T01:49:24.762Z,11.95
2023-06-18T01:51:51.862Z,11.97
2023-06-18T01:54:19.088Z,12.00
2023-06-18T01:56:45.980Z,12.03
2023-06-18T01:59:13.100Z,12.00
2023-06-18T02:01:42.745Z,12.07
2023-06-18T02:04:09.563Z,12.03
2023-06-18T02:06:36.584Z,12.11
2023-06-18T02:09:03.541Z,12.11
2023-06-18T02:11:30.483Z,12.20
2023-06-18T02:13:57.301Z,12.20
2023-06-18T02:16:24.149Z,12.21
2023-06-18T02:18:51.001Z,12.19
2023-06-18T02:21:17.816Z,11.92
2023-06-18T02:23:44.574Z,12.08
2023-06-18T02:26:11.406Z,12.05
2023-06-18T02:28:39.125Z,12.06
2023-06-18T02:31:08.037Z,12.02
2023-06-18T02:33:34.907Z,11.92
2023-06-18T02:36:01.796Z,11.93
2023-06-18T02:38:29.296Z,11.90
2023-06-18T02:40:57.018Z,11.91
2023-06-18T02:43:23.813Z,11.86
2023-06-18T02:45:52.541Z,11.83
2023-06-18T02:48:19.540Z,11.88
2023-06-18T02:50:46.336Z,11.87
2023-06-18T02:53:13.125Z,12.05
2023-06-18T02:55:42.477Z,12.29
2023-06-18T02:58:20.802Z,12.48
2023-06-18T03:00:47.854Z,12.62
2023-06-18T03:03:15.808Z,12.88
2023-06-18T03:05:42.722Z,12.88
2023-06-18T03:08:09.596Z,12.92
2023-06-18T03:10:36.562Z,13.10
2023-06-18T03:13:03.383Z,13.26
2023-06-18T03:15:30.143Z,13.24
2023-06-18T03:17:56.991Z,13.46
2023-06-18T03:20:25.013Z,13.69
2023-06-18T03:22:51.975Z,13.72
2023-06-18T03:25:18.768Z,13.60
2023-06-18T03:27:45.639Z,13.80
2023-06-18T03:30:13.226Z,14.16
2023-06-18T03:32:40.085Z,14.45
2023-06-18T03:35:07.442Z,14.80
2023-06-18T03:37:34.364Z,15.12
2023-06-18T03:40:02.540Z,15.47
2023-06-18T03:42:29.360Z,15.88
2023-06-18T03:44:56.226Z,16.41
2023-06-18T03:47:23.133Z,16.70
2023-06-18T03:49:50.041Z,17.10
2023-06-18T03:52:16.838Z,17.55
2023-06-18T03:54:43.681Z,17.88
2023-06-18T03:57:10.991Z,18.23
2023-06-18T03:59:37.818Z,18.48
2023-06-18T04:02:04.874Z,18.76
2023-06-18T04:04:31.744Z,18.47
2023-06-18T04:06:59.157Z,18.24
2023-06-18T04:09:26.075Z,17.99
2023-06-18T04:11:54.257Z,17.79
2023-06-18T04:14:21.338Z,17.73
2023-06-18T04:16:48.082Z,17.63
2023-06-18T04:19:14.980Z,17.62
2023-06-18T04:21:41.780Z,17.47
2023-06-18T04:24:08.606Z,17.52
2023-06-18T04:26:35.584Z,17.56
2023-06-18T04:29:02.385Z,17.74
2023-06-18T04:31:29.221Z,17.77
2023-06-18T04:33:56.055Z,17.85
2023-06-18T04:36:22.884Z,18.12
2023-06-18T04:38:49.668Z,18.35
2023-06-18T04:41:16.544Z,18.44
2023-06-18T04:43:43.320Z,18.52
2023-06-18T04:46:10.215Z,18.73
2023-06-18T04:48:37.047Z,18.83
2023-06-18T04:51:04.019Z,19.00
2023-06-18T04:53:30.821Z,19.25
2023-06-18T04:55:57.745Z,19.26
2023-06-18T04:58:25.662Z,19.30
2023-06-18T05:00:53.454Z,19.41
2023-06-18T05:03:20.496Z,19.39
2023-06-18T05:05:47.466Z,19.38
2023-06-18T05:08:14.341Z,19.49
2023-06-18T05:10:41.238Z,19.60
2023-06-18T05:13:08.043Z,19.66
2023-06-18T05:15:34.948Z,19.79
2023-06-18T05:18:02.088Z,19.99
2023-06-18T05:20:29.148Z,20.27
2023-06-18T05:22:55.990Z,20.77
2023-06-18T05:25:22.829Z,20.77
2023-06-18T05:27:49.656Z,20.82
2023-06-18T05:30:16.611Z,21.40
2023-06-18T05:32:43.503Z,22.03
2023-06-18T05:35:10.767Z,22.88
2023-06-18T05:37:37.608Z,23.51
2023-06-18T05:40:08.266Z,23.84
2023-06-18T05:42:36.214Z,24.28
2023-06-18T05:45:03.888Z,24.25
2023-06-18T05:47:31.088Z,24.59
2023-06-18T05:49:58.145Z,25.33
2023-06-18T05:52:25.005Z,25.58
2023-06-18T05:54:51.826Z,25.75
2023-06-18T05:57:18.656Z,25.83
2023-06-18T05:59:48.561Z,25.76
2023-06-18T06:02:15.529Z,26.55
2023-06-18T06:04:43.263Z,26.35
2023-06-18T06:07:11.753Z,26.55
2023-06-18T06:09:38.547Z,25.93
2023-06-18T06:12:05.590Z,25.81
2023-06-18T06:14:32.400Z,26.63
2023-06-18T06:16:59.404Z,27.91
2023-06-18T06:19:26.892Z,28.29
2023-06-18T06:21:53.772Z,28.38
2023-06-18T06:24:20.764Z,27.34
2023-06-18T06:26:47.689Z,26.32
2023-06-18T06:29:14.643Z,25.54
2023-06-18T06:31:41.803Z,26.03
2023-06-18T06:34:08.746Z,25.52
2023-06-18T06:36:37.247Z,25.80
2023-06-18T06:39:04.405Z,26.71
2023-06-18T06:41:31.326Z,27.12
2023-06-18T06:43:58.148Z,26.77
2023-06-18T06:46:25.110Z,27.59
2023-06-18T06:48:52.034Z,28.18
2023-06-18T06:51:18.855Z,27.92
2023-06-18T06:53:48.110Z,26.96
2023-06-18T06:58:42.735Z,27.88
2023-06-18T07:01:09.523Z,27.71
2023-06-18T07:03:37.109Z,27.36
2023-06-18T07:06:07.521Z,26.80
2023-06-18T07:08:34.592Z,26.49
2023-06-18T07:11:01.696Z,27.29
2023-06-18T07:13:28.547Z,28.16
2023-06-18T07:15:55.405Z,28.20
2023-06-18T07:18:22.302Z,28.80
2023-06-18T07:20:49.143Z,28.66
2023-06-18T07:23:16.041Z,27.78
2023-06-18T07:25:42.991Z,26.73
2023-06-18T07:28:09.812Z,27.60
2023-06-18T07:30:36.703Z,28.32
2023-06-18T07:33:03.665Z,29.15
2023-06-18T07:35:30.604Z,30.22
2023-06-18T07:37:57.455Z,30.84
2023-06-18T07:40:24.523Z,31.63
2023-06-18T07:42:51.563Z,31.65
2023-06-18T07:45:18.474Z,32.32
2023-06-18T07:47:45.608Z,31.69
2023-06-18T07:50:13.142Z,31.30
2023-06-18T07:52:39.940Z,30.10
2023-06-18T07:55:07.476Z,29.25
2023-06-18T07:57:34.344Z,28.73
2023-06-18T08:00:01.285Z,27.67
2023-06-18T08:02:28.263Z,28.73
2023-06-18T08:04:55.255Z,28.84
2023-06-18T08:07:22.167Z,29.92
2023-06-18T08:09:49.053Z,29.58
2023-06-18T08:12:16.279Z,29.41
2023-06-18T08:14:46.706Z,27.96
2023-06-18T08:17:17.225Z,26.50
2023-06-18T08:19:46.479Z,25.30
2023-06-18T08:22:13.757Z,24.38
2023-06-18T08:24:40.917Z,24.45
2023-06-18T08:27:08.171Z,26.84
2023-06-18T08:29:35.125Z,29.72
2023-06-18T08:32:06.019Z,31.62
2023-06-18T08:34:33.565Z,32.20
2023-06-18T08:37:01.146Z,31.80
2023-06-18T08:39:28.184Z,31.06
2023-06-18T08:41:56.048Z,30.51
2023-06-18T08:44:24.733Z,29.59
2023-06-18T08:46:51.600Z,28.98
2023-06-18T08:49:18.722Z,28.99
2023-06-18T08:51:45.950Z,28.27
2023-06-18T08:54:12.768Z,27.52
2023-06-18T08:56:50.831Z,27.11
2023-06-18T08:59:18.108Z,27.00
2023-06-18T09:01:44.908Z,26.42
2023-06-18T09:04:12.031Z,26.08
2023-06-18T09:06:38.912Z,26.03
2023-06-18T09:09:05.865Z,25.46
2023-06-18T09:11:37.359Z,25.40
2023-06-18T09:14:05.014Z,25.07
2023-06-18T09:16:32.011Z,25.14
2023-06-18T09:18:58.886Z,25.02
2023-06-18T09:21:41.854Z,25.09
2023-06-18T09:24:10.666Z,25.23
2023-06-18T09:26:37.613Z,25.93
2023-06-18T09:29:10.590Z,25.90
2023-06-18T09:31:38.935Z,25.74
2023-06-18T09:34:13.348Z,25.75
2023-06-18T09:36:44.119Z,26.15
2023-06-18T09:39:17.469Z,27.85
2023-06-18T09:41:45.530Z,30.44
2023-06-18T09:44:16.215Z,33.04
2023-06-18T09:46:47.549Z,34.14
2023-06-18T09:49:18.330Z,33.59
2023-06-18T09:51:45.381Z,31.27
2023-06-18T09:54:12.334Z,29.47
2023-06-18T09:56:39.531Z,30.83
2023-06-18T09:59:06.408Z,30.21
2023-06-18T10:01:49.527Z,29.02
2023-06-18T10:04:18.334Z,27.95
2023-06-18T10:06:54.490Z,27.35
2023-06-18T10:09:21.707Z,27.29
2023-06-18T10:11:50.341Z,27.04
2023-06-18T10:14:18.067Z,26.40
2023-06-18T10:16:49.898Z,26.20
2023-06-18T10:19:20.862Z,27.69
2023-06-18T10:21:51.098Z,29.57
2023-06-18T10:24:19.067Z,29.87
2023-06-18T10:26:46.966Z,29.59
2023-06-18T10:29:13.861Z,28.61
2023-06-18T10:31:40.852Z,27.79
2023-06-18T10:34:07.753Z,27.30
2023-06-18T10:36:34.609Z,26.98
2023-06-18T10:39:02.384Z,27.10
2023-06-18T10:41:29.200Z,29.37
2023-06-18T10:43:56.286Z,30.88
2023-06-18T10:46:23.331Z,30.85
2023-06-18T10:49:18.648Z,31.47
2023-06-18T10:52:06.363Z,30.31
2023-06-18T10:54:35.163Z,28.43
2023-06-18T10:57:03.052Z,29.43
2023-06-18T10:59:45.996Z,31.28
2023-06-18T11:02:13.639Z,33.43
2023-06-18T11:04:41.272Z,34.36
2023-06-18T11:07:25.013Z,35.42
2023-06-18T11:09:53.427Z,36.03
2023-06-18T11:12:30.567Z,35.85
2023-06-18T11:15:23.926Z,36.70
2023-06-18T11:17:54.950Z,37.23
2023-06-18T11:20:23.883Z,37.28
2023-06-18T11:22:57.247Z,37.71
2023-06-18T11:25:25.789Z,38.16
2023-06-18T11:27:54.836Z,38.89
2023-06-18T11:30:21.888Z,38.64
2023-06-18T11:32:48.953Z,36.10
2023-06-18T11:35:16.167Z,33.32
2023-06-18T11:37:43.828Z,31.42
2023-06-18T11:40:11.060Z,30.16
2023-06-18T11:42:41.335Z,30.16
2023-06-18T11:45:08.695Z,31.95
2023-06-18T11:47:35.933Z,33.83
2023-06-18T11:50:08.552Z,35.31
2023-06-18T11:52:37.500Z,35.56
2023-06-18T11:55:05.479Z,36.37
2023-06-18T11:57:32.868Z,37.12
2023-06-18T12:00:00.409Z,37.80
2023-06-18T12:02:28.503Z,38.21
2023-06-18T12:05:05.147Z,38.33
2023-06-18T12:07:32.270Z,38.23
2023-06-18T12:10:00.868Z,38.15
2023-06-18T12:12:42.886Z,37.45
2023-06-18T12:15:18.222Z,37.52
2023-06-18T12:17:56.034Z,36.77
2023-06-18T12:20:29.118Z,37.82
2023-06-18T12:23:00.028Z,36.14
2023-06-18T12:25:29.259Z,36.70
2023-06-18T12:27:56.854Z,36.63
2023-06-18T12:30:49.664Z,36.18
2023-06-18T12:33:16.635Z,36.59
2023-06-18T12:35:58.026Z,35.19
2023-06-18T12:38:25.533Z,33.26
2023-06-18T12:41:00.489Z,31.66
2023-06-18T12:43:27.392Z,30.47
2023-06-18T12:45:54.311Z,29.70
2023-06-18T12:48:26.025Z,28.92
2023-06-18T12:50:54.052Z,28.31
2023-06-18T12:53:23.549Z,28.40
2023-06-18T12:55:55.202Z,30.22
2023-06-18T12:58:24.159Z,31.98
2023-06-18T13:00:51.877Z,31.54
2023-06-18T13:03:19.311Z,31.58
2023-06-18T13:05:48.086Z,33.20
2023-06-18T13:08:20.135Z,32.82
2023-06-18T13:10:52.049Z,32.38
2023-06-18T13:13:19.433Z,32.05
2023-06-18T13:15:50.376Z,31.28
2023-06-18T13:18:20.191Z,31.29
2023-06-18T13:20:47.905Z,31.58
2023-06-18T13:23:15.132Z,31.76
2023-06-18T13:25:42.441Z,31.64
2023-06-18T13:28:09.596Z,30.72
2023-06-18T13:30:36.807Z,29.88
2023-06-18T13:33:03.831Z,29.04
2023-06-18T13:35:34.145Z,28.24
2023-06-18T13:38:01.263Z,28.46
2023-06-18T13:40:28.950Z,28.82
2023-06-18T13:42:55.783Z,28.77
2023-06-18T13:45:22.728Z,28.67
2023-06-18T13:47:49.779Z,28.44
2023-06-18T13:50:17.081Z,27.52
2023-06-18T13:52:43.963Z,25.52
2023-06-18T13:55:10.900Z,24.92
2023-06-18T13:57:38.324Z,24.15
2023-06-18T14:00:09.060Z,23.75
2023-06-18T14:02:36.085Z,23.55
2023-06-18T14:05:03.149Z,23.75
2023-06-18T14:07:31.682Z,23.51
2023-06-18T14:09:58.720Z,23.32
2023-06-18T14:12:28.170Z,23.38
2023-06-18T14:14:56.213Z,23.14
2023-06-18T14:17:27.246Z,23.22
2023-06-18T14:19:55.359Z,23.02
2023-06-18T14:22:22.314Z,23.05
2023-06-18T14:24:49.342Z,23.32
2023-06-18T14:27:16.505Z,23.42
2023-06-18T14:29:43.440Z,23.93
2023-06-18T14:32:10.390Z,23.81
2023-06-18T14:34:37.201Z,23.99
2023-06-18T14:37:04.210Z,24.17
2023-06-18T14:39:31.041Z,24.07
2023-06-18T14:41:57.837Z,23.79
2023-06-18T14:44:28.213Z,23.75
2023-06-18T14:46:55.244Z,23.91
2023-06-18T14:49:22.117Z,23.86
2023-06-18T14:51:49.054Z,23.91
2023-06-18T14:54:17.380Z,24.00
2023-06-18T14:56:47.338Z,24.04
2023-06-18T14:59:14.423Z,23.90
2023-06-18T15:01:41.390Z,23.83
2023-06-18T15:04:09.229Z,23.72
2023-06-18T15:06:36.984Z,23.54
2023-06-18T15:09:04.863Z,23.38
2023-06-18T15:11:31.960Z,23.32
2023-06-18T15:13:58.962Z,23.31
2023-06-18T15:16:26.367Z,23.05
2023-06-18T15:18:53.576Z,22.95
2023-06-18T15:21:20.844Z,22.97
2023-06-18T15:23:47.656Z,22.79
2023-06-18T15:26:21.295Z,22.81
2023-06-18T15:28:53.133Z,22.85
2023-06-18T15:31:20.081Z,22.94
2023-06-18T15:33:51.081Z,22.96
2023-06-18T15:36:18.073Z,22.79
2023-06-18T15:38:47.333Z,22.53
2023-06-18T15:41:14.233Z,22.20
2023-06-18T15:43:41.164Z,22.34
2023-06-18T15:46:08.080Z,22.33
2023-06-18T15:48:34.981Z,22.38
2023-06-18T15:51:01.976Z,22.31
2023-06-18T15:53:29.010Z,22.01
2023-06-18T15:55:56.623Z,22.14
2023-06-18T15:58:23.509Z,22.46
2023-06-18T16:00:50.922Z,22.76
2023-06-18T16:03:17.870Z,22.80
2023-06-18T16:05:45.070Z,23.03
2023-06-18T16:08:12.181Z,23.01
2023-06-18T16:10:39.128Z,22.84
2023-06-18T16:13:07.177Z,22.55
2023-06-18T16:15:34.127Z,22.62
2023-06-18T16:18:10.451Z,22.43
2023-06-18T16:20:38.631Z,22.30
2023-06-18T16:23:05.711Z,22.26
2023-06-18T16:25:32.604Z,22.30
2023-06-18T16:28:00.093Z,22.57
2023-06-18T16:30:30.672Z,22.74
2023-06-18T16:33:00.004Z,22.50
2023-06-18T16:35:26.982Z,22.32
2023-06-18T16:37:54.450Z,22.09
2023-06-18T16:40:21.951Z,21.92
2023-06-18T16:42:48.976Z,21.66
2023-06-18T16:45:16.052Z,21.59
2023-06-18T16:47:43.107Z,21.43
2023-06-18T16:50:10.528Z,21.17
2023-06-18T16:52:37.444Z,21.09
2023-06-18T16:55:06.394Z,21.32
2023-06-18T16:57:33.494Z,21.17
2023-06-18T17:00:00.356Z,20.96
2023-06-18T17:02:27.533Z,20.63
2023-06-18T17:04:54.497Z,20.78
2023-06-18T17:07:21.625Z,20.61
2023-06-18T17:09:48.696Z,20.64
2023-06-18T17:12:15.606Z,20.23
2023-06-18T17:14:42.494Z,20.26
2023-06-18T17:17:09.584Z,20.46
2023-06-18T17:19:44.147Z,20.24
2023-06-18T17:22:13.409Z,20.11
2023-06-18T17:24:40.498Z,20.17
2023-06-18T17:27:07.799Z,20.29
2023-06-18T17:29:34.776Z,20.13
2023-06-18T17:32:03.532Z,20.23
2023-06-18T17:34:30.665Z,20.18
2023-06-18T17:36:57.646Z,20.18
2023-06-18T17:39:28.956Z,20.21
2023-06-18T17:41:55.999Z,19.94
2023-06-18T17:44:22.952Z,19.88
2023-06-18T17:46:50.199Z,20.00
2023-06-18T17:49:17.280Z,19.85
2023-06-18T17:51:44.732Z,19.76
2023-06-18T17:54:14.114Z,19.58
2023-06-18T17:56:41.209Z,19.28
2023-06-18T17:59:09.301Z,19.53
2023-06-18T18:01:36.372Z,19.39
2023-06-18T18:04:03.390Z,19.17
2023-06-18T18:06:30.364Z,19.10
2023-06-18T18:08:57.399Z,19.00
2023-06-18T18:11:28.698Z,18.95
2023-06-18T18:13:58.729Z,18.71
2023-06-18T18:16:25.605Z,18.72
2023-06-18T18:18:53.042Z,18.53
2023-06-18T18:21:19.996Z,18.56
2023-06-18T18:23:46.943Z,18.75
2023-06-18T18:26:14.635Z,18.52
2023-06-18T18:28:41.630Z,18.39
2023-06-18T18:31:09.089Z,18.48
2023-06-18T18:33:35.972Z,18.40
2023-06-18T18:36:05.171Z,18.49
2023-06-18T18:38:32.036Z,18.43
2023-06-18T18:40:58.891Z,18.45
2023-06-18T18:43:26.351Z,18.32
2023-06-18T18:45:53.271Z,18.37
2023-06-18T18:48:20.958Z,18.15
2023-06-18T18:50:47.865Z,18.11
2023-06-18T18:53:14.898Z,18.19
2023-06-18T18:55:41.769Z,18.07
2023-06-18T18:58:08.664Z,18.00
2023-06-18T19:00:35.727Z,18.06
2023-06-18T19:03:02.880Z,17.87
2023-06-18T19:05:29.885Z,17.92
2023-06-18T19:07:56.832Z,17.71
2023-06-18T19:10:24.842Z,17.74
2023-06-18T19:12:54.217Z,17.65
2023-06-18T19:15:21.141Z,17.68
2023-06-18T19:17:48.081Z,17.49
2023-06-18T19:20:15.183Z,17.56
2023-06-18T19:22:42.142Z,17.39
2023-06-18T19:25:09.644Z,17.49
2023-06-18T19:27:36.522Z,17.38
2023-06-18T19:30:04.029Z,17.18
2023-06-18T19:32:30.926Z,17.27
2023-06-18T19:34:57.919Z,17.11
2023-06-18T19:37:24.732Z,16.98
2023-06-18T19:39:51.628Z,17.02
2023-06-18T19:42:18.652Z,16.98
2023-06-18T19:44:45.973Z,16.77
2023-06-18T19:47:12.841Z,16.89
2023-06-18T19:49:39.676Z,16.66
2023-06-18T19:52:07.404Z,16.72
2023-06-18T19:54:35.528Z,16.75
2023-06-18T19:57:02.541Z,16.52
2023-06-18T19:59:29.499Z,16.54
2023-06-18T20:01:56.430Z,16.30
2023-06-18T20:04:23.376Z,16.23
2023-06-18T20:06:50.305Z,16.37
2023-06-18T20:09:17.329Z,16.18
2023-06-18T20:11:44.231Z,16.17
2023-06-18T20:14:13.265Z,16.19
2023-06-18T20:16:40.421Z,16.09
2023-06-18T20:19:07.487Z,15.99
2023-06-18T20:21:34.468Z,16.02
2023-06-18T20:24:01.832Z,15.95
2023-06-18T20:26:28.796Z,15.91
2023-06-18T20:28:55.746Z,15.95
2023-06-18T20:31:22.567Z,15.78
2023-06-18T20:33:49.675Z,15.80
2023-06-18T20:36:17.455Z,15.70
2023-06-18T20:38:44.397Z,15.75
2023-06-18T20:41:11.826Z,15.59
2023-06-18T20:43:39.463Z,15.63
2023-06-18T20:46:06.419Z,15.57
2023-06-18T20:48:33.607Z,15.56
2023-06-18T20:51:05.002Z,15.45
2023-06-18T20:53:32.952Z,15.59
2023-06-18T20:56:00.888Z,15.79
2023-06-18T20:58:27.958Z,15.63
2023-06-18T21:00:54.960Z,15.54
2023-06-18T21:03:24.571Z,15.59
2023-06-18T21:05:51.992Z,15.66
2023-06-18T21:08:19.261Z,15.69
2023-06-18T21:10:46.275Z,15.69
2023-06-18T21:13:13.117Z,15.77
2023-06-18T21:15:40.112Z,15.83
2023-06-18T21:18:07.400Z,15.74
2023-06-18T21:20:34.414Z,15.78
2023-06-18T21:23:01.225Z,15.71
2023-06-18T21:25:28.150Z,15.63
2023-06-18T21:27:58.048Z,15.77
2023-06-18T21:30:25.655Z,15.59
2023-06-18T21:32:53.580Z,15.72
2023-06-18T21:35:20.438Z,15.54
2023-06-18T21:37:47.403Z,15.63
2023-06-18T21:40:14.889Z,15.50
2023-06-18T21:42:42.463Z,15.43
2023-06-18T21:45:09.567Z,15.61
2023-06-18T21:47:36.556Z,15.51
2023-06-18T21:50:03.750Z,15.50
2023-06-18T21:52:30.701Z,15.51
2023-06-18T21:54:57.666Z,15.39
2023-06-18T21:57:24.642Z,15.46
2023-06-18T21:59:51.730Z,15.48
2023-06-18T22:02:18.792Z,15.48
2023-06-18T22:04:45.749Z,15.55
2023-06-18T22:07:13.116Z,15.45
2023-06-18T22:09:40.050Z,15.61
2023-06-18T22:12:07.323Z,15.62
2023-06-18T22:14:34.951Z,15.65
2023-06-18T22:17:01.915Z,15.47
2023-06-18T22:19:28.784Z,15.47
2023-06-18T22:21:55.642Z,15.46
2023-06-18T22:24:22.604Z,15.46
2023-06-18T22:26:53.698Z,15.58
2023-06-18T22:29:22.408Z,15.54
2023-06-18T22:31:52.882Z,15.35
2023-06-18T22:34:32.341Z,15.43
2023-06-18T22:37:06.872Z,15.47
2023-06-18T22:39:33.963Z,15.51
2023-06-18T22:42:01.012Z,15.30
2023-06-18T22:44:27.898Z,15.37
2023-06-18T22:46:54.786Z,15.32
2023-06-18T22:49:21.711Z,15.20
2023-06-18T22:51:54.904Z,14.99
2023-06-18T22:54:21.785Z,15.11
2023-06-18T22:56:48.663Z,15.06
2023-06-18T22:59:15.587Z,14.96
2023-06-18T23:01:42.483Z,14.67
2023-06-18T23:04:09.417Z,14.58
2023-06-18T23:06:36.391Z,14.58
2023-06-18T23:09:03.671Z,14.41
2023-06-18T23:11:30.557Z,14.43
2023-06-18T23:13:57.461Z,14.27
2023-06-18T23:16:24.373Z,14.23
2023-06-18T23:18:52.418Z,14.04
2023-06-18T23:21:19.400Z,14.14
2023-06-18T23:23:46.339Z,14.04
2023-06-18T23:26:13.530Z,13.86
2023-06-18T23:28:40.561Z,13.90
2023-06-18T23:31:09.205Z,13.85
2023-06-18T23:33:36.200Z,13.72
2023-06-18T23:36:03.491Z,13.70
2023-06-18T23:38:30.501Z,13.78
2023-06-18T23:40:57.403Z,13.50
2023-06-18T23:43:24.253Z,13.63
2023-06-18T23:45:51.246Z,13.49
2023-06-18T23:48:18.145Z,13.51
2023-06-18T23:50:45.066Z,13.48
2023-06-18T23:53:11.969Z,13.46
2023-06-18T23:55:39.021Z,13.39
2023-06-18T23:58:05.916Z,13.49
